sensor_id;sensor_type;location;lat;lon;timestamp;temperature;humidity
20479;DHT22;10398;52.490;13.434;2023-02-28T00:01:24;5.60;99.90
20479;DHT22;10398;52.490;13.434;2023-02-28T00:03:50;5.40;99.90
20479;DHT22;10398;52.490;13.434;2023-02-28T00:06:16;5.20;99.90
20479;DHT22;10398;52.490;13.434;2023-02-28T00:08:42;5.40;99.90
20479;DHT22;10398;52.490;13.434;2023-02-28T00:11:10;5.20;99.90
20479;DHT22;10398;52.490;13.434;2023-02-28T00:13:39;5.00;99.90
20479;DHT22;10398;52.490;13.434;2023-02-28T00:16:16;5.10;99.90
20479;DHT22;10398;52.490;13.434;2023-02-28T00:18:42;5.20;99.90
20479;DHT22;10398;52.490;13.434;2023-02-28T00:21:10;5.40;99.90
20479;DHT22;10398;52.490;13.434;2023-02-28T00:23:36;5.50;99.90
20479;DHT22;10398;52.490;13.434;2023-02-28T00:26:04;5.50;99.90
20479;DHT22;10398;52.490;13.434;2023-02-28T00:28:30;5.50;99.90
20479;DHT22;10398;52.490;13.434;2023-02-28T00:30:56;5.60;99.90
20479;DHT22;10398;52.490;13.434;2023-02-28T00:33:22;5.60;99.90
20479;DHT22;10398;52.490;13.434;2023-02-28T00:35:48;5.50;99.90
20479;DHT22;10398;52.490;13.434;2023-02-28T00:38:17;5.50;99.90
20479;DHT22;10398;52.490;13.434;2023-02-28T00:40:43;5.40;99.90
20479;DHT22;10398;52.490;13.434;2023-02-28T00:43:11;5.40;99.90
20479;DHT22;10398;52.490;13.434;2023-02-28T00:45:37;5.30;99.90
20479;DHT22;10398;52.490;13.434;2023-02-28T00:48:05;5.30;99.90
20479;DHT22;10398;52.490;13.434;2023-02-28T00:50:34;5.30;99.90
20479;DHT22;10398;52.490;13.434;2023-02-28T00:52:59;5.30;99.90
20479;DHT22;10398;52.490;13.434;2023-02-28T00:55:25;5.40;99.90
20479;DHT22;10398;52.490;13.434;2023-02-28T00:57:50;5.40;99.90
20479;DHT22;10398;52.490;13.434;2023-02-28T01:00:16;5.40;99.90
20479;DHT22;10398;52.490;13.434;2023-02-28T01:02:42;5.40;99.90
20479;DHT22;10398;52.490;13.434;2023-02-28T01:05:08;5.40;99.90
20479;DHT22;10398;52.490;13.434;2023-02-28T01:07:33;5.40;99.90
20479;DHT22;10398;52.490;13.434;2023-02-28T01:09:59;5.30;99.90
20479;DHT22;10398;52.490;13.434;2023-02-28T01:12:25;5.30;99.90
20479;DHT22;10398;52.490;13.434;2023-02-28T01:14:50;5.30;99.90
20479;DHT22;10398;52.490;13.434;2023-02-28T01:17:16;5.30;99.90
20479;DHT22;10398;52.490;13.434;2023-02-28T01:19:42;5.20;99.90
20479;DHT22;10398;52.490;13.434;2023-02-28T01:22:07;5.30;99.90
20479;DHT22;10398;52.490;13.434;2023-02-28T01:24:33;5.30;99.90
20479;DHT22;10398;52.490;13.434;2023-02-28T01:26:59;5.30;99.90
20479;DHT22;10398;52.490;13.434;2023-02-28T01:29:25;5.30;99.90
20479;DHT22;10398;52.490;13.434;2023-02-28T01:31:50;5.30;99.90
20479;DHT22;10398;52.490;13.434;2023-02-28T01:34:16;5.30;99.90
20479;DHT22;10398;52.490;13.434;2023-02-28T01:36:44;5.20;99.90
20479;DHT22;10398;52.490;13.434;2023-02-28T01:39:17;5.10;99.90
20479;DHT22;10398;52.490;13.434;2023-02-28T01:41:44;5.10;99.90
20479;DHT22;10398;52.490;13.434;2023-02-28T01:47:12;5.00;99.90
20479;DHT22;10398;52.490;13.434;2023-02-28T01:49:39;4.90;99.90
20479;DHT22;10398;52.490;13.434;2023-02-28T01:52:05;4.80;99.90
20479;DHT22;10398;52.490;13.434;2023-02-28T01:54:33;4.80;99.90
20479;DHT22;10398;52.490;13.434;2023-02-28T01:57:04;4.60;99.90
20479;DHT22;10398;52.490;13.434;2023-02-28T01:59:42;4.60;99.90
20479;DHT22;10398;52.490;13.434;2023-02-28T02:02:17;4.50;99.90
20479;DHT22;10398;52.490;13.434;2023-02-28T02:04:54;4.40;99.90
20479;DHT22;10398;52.490;13.434;2023-02-28T02:07:21;4.40;99.90
20479;DHT22;10398;52.490;13.434;2023-02-28T02:09:47;4.40;99.90
20479;DHT22;10398;52.490;13.434;2023-02-28T02:15:17;4.20;99.90
20479;DHT22;10398;52.490;13.434;2023-02-28T02:17:52;4.20;99.90
20479;DHT22;10398;52.490;13.434;2023-02-28T02:29:14;4.10;99.90
20479;DHT22;10398;52.490;13.434;2023-02-28T02:35:05;4.00;99.90
20479;DHT22;10398;52.490;13.434;2023-02-28T02:37:40;3.90;99.90
20479;DHT22;10398;52.490;13.434;2023-02-28T02:40:20;3.90;99.90
20479;DHT22;10398;52.490;13.434;2023-02-28T02:42:55;3.80;99.90
20479;DHT22;10398;52.490;13.434;2023-02-28T02:45:37;3.70;99.90
20479;DHT22;10398;52.490;13.434;2023-02-28T02:48:09;3.70;99.90
20479;DHT22;10398;52.490;13.434;2023-02-28T02:50:39;3.70;99.90
20479;DHT22;10398;52.490;13.434;2023-02-28T02:53:07;3.70;99.90
20479;DHT22;10398;52.490;13.434;2023-02-28T02:55:38;3.60;99.90
20479;DHT22;10398;52.490;13.434;2023-02-28T02:58:07;3.60;99.90
20479;DHT22;10398;52.490;13.434;2023-02-28T03:03:04;3.50;99.90
20479;DHT22;10398;52.490;13.434;2023-02-28T03:05:50;3.40;99.90
20479;DHT22;10398;52.490;13.434;2023-02-28T03:08:16;3.50;99.90
20479;DHT22;10398;52.490;13.434;2023-02-28T03:10:45;3.40;99.90
20479;DHT22;10398;52.490;13.434;2023-02-28T03:16:03;3.40;99.90
20479;DHT22;10398;52.490;13.434;2023-02-28T03:27:00;3.40;99.90
20479;DHT22;10398;52.490;13.434;2023-02-28T03:29:35;3.50;99.90
20479;DHT22;10398;52.490;13.434;2023-02-28T03:32:17;3.60;99.90
20479;DHT22;10398;52.490;13.434;2023-02-28T03:35:07;3.60;99.90
20479;DHT22;10398;52.490;13.434;2023-02-28T03:37:37;3.60;99.90
20479;DHT22;10398;52.490;13.434;2023-02-28T03:40:13;3.60;99.90
20479;DHT22;10398;52.490;13.434;2023-02-28T03:42:42;3.60;99.90
20479;DHT22;10398;52.490;13.434;2023-02-28T03:45:21;3.60;99.90
20479;DHT22;10398;52.490;13.434;2023-02-28T03:47:58;3.60;99.90
20479;DHT22;10398;52.490;13.434;2023-02-28T03:50:41;3.50;99.90
20479;DHT22;10398;52.490;13.434;2023-02-28T03:53:25;3.50;99.90
20479;DHT22;10398;52.490;13.434;2023-02-28T03:58:39;3.40;99.90
20479;DHT22;10398;52.490;13.434;2023-02-28T04:01:16;3.40;99.90
20479;DHT22;10398;52.490;13.434;2023-02-28T04:03:44;3.50;99.90
20479;DHT22;10398;52.490;13.434;2023-02-28T04:06:16;3.60;99.90
20479;DHT22;10398;52.490;13.434;2023-02-28T04:08:43;3.60;99.90
20479;DHT22;10398;52.490;13.434;2023-02-28T04:11:24;3.50;99.90
20479;DHT22;10398;52.490;13.434;2023-02-28T04:13:53;3.40;99.90
20479;DHT22;10398;52.490;13.434;2023-02-28T04:16:18;3.40;99.90
20479;DHT22;10398;52.490;13.434;2023-02-28T04:18:44;3.40;99.90
20479;DHT22;10398;52.490;13.434;2023-02-28T04:21:11;3.30;99.90
20479;DHT22;10398;52.490;13.434;2023-02-28T04:23:37;3.30;99.90
20479;DHT22;10398;52.490;13.434;2023-02-28T04:26:03;3.20;99.90
20479;DHT22;10398;52.490;13.434;2023-02-28T04:28:29;3.20;99.90
20479;DHT22;10398;52.490;13.434;2023-02-28T04:31:01;3.10;99.90
20479;DHT22;10398;52.490;13.434;2023-02-28T04:33:27;3.00;99.90
20479;DHT22;10398;52.490;13.434;2023-02-28T04:36:04;2.90;99.90
20479;DHT22;10398;52.490;13.434;2023-02-28T04:38:35;2.90;99.90
20479;DHT22;10398;52.490;13.434;2023-02-28T04:41:02;2.90;99.90
20479;DHT22;10398;52.490;13.434;2023-02-28T04:43:28;2.90;99.90
20479;DHT22;10398;52.490;13.434;2023-02-28T04:45:55;2.90;99.90
20479;DHT22;10398;52.490;13.434;2023-02-28T04:48:28;2.90;99.90
20479;DHT22;10398;52.490;13.434;2023-02-28T04:50:53;2.90;99.90
20479;DHT22;10398;52.490;13.434;2023-02-28T04:53:19;2.90;99.90
20479;DHT22;10398;52.490;13.434;2023-02-28T04:55:45;3.00;99.90
20479;DHT22;10398;52.490;13.434;2023-02-28T04:58:12;3.00;99.90
20479;DHT22;10398;52.490;13.434;2023-02-28T05:00:38;3.00;99.90
20479;DHT22;10398;52.490;13.434;2023-02-28T05:03:03;2.90;99.90
20479;DHT22;10398;52.490;13.434;2023-02-28T05:05:29;2.90;99.90
20479;DHT22;10398;52.490;13.434;2023-02-28T05:07:55;2.90;99.90
20479;DHT22;10398;52.490;13.434;2023-02-28T05:10:22;2.90;99.90
20479;DHT22;10398;52.490;13.434;2023-02-28T05:12:47;2.90;99.90
20479;DHT22;10398;52.490;13.434;2023-02-28T05:15:14;2.80;99.90
20479;DHT22;10398;52.490;13.434;2023-02-28T05:17:40;2.90;99.90
20479;DHT22;10398;52.490;13.434;2023-02-28T05:20:07;2.80;99.90
20479;DHT22;10398;52.490;13.434;2023-02-28T05:22:36;2.80;99.90
20479;DHT22;10398;52.490;13.434;2023-02-28T05:25:03;2.80;99.90
20479;DHT22;10398;52.490;13.434;2023-02-28T05:27:30;2.80;99.90
20479;DHT22;10398;52.490;13.434;2023-02-28T05:29:56;2.70;99.90
20479;DHT22;10398;52.490;13.434;2023-02-28T05:32:21;2.70;99.90
20479;DHT22;10398;52.490;13.434;2023-02-28T05:34:47;2.70;99.90
20479;DHT22;10398;52.490;13.434;2023-02-28T05:37:13;2.70;99.90
20479;DHT22;10398;52.490;13.434;2023-02-28T05:39:39;2.80;99.90
20479;DHT22;10398;52.490;13.434;2023-02-28T05:42:05;2.70;99.90
20479;DHT22;10398;52.490;13.434;2023-02-28T05:44:31;2.70;99.90
20479;DHT22;10398;52.490;13.434;2023-02-28T05:46:57;2.70;99.90
20479;DHT22;10398;52.490;13.434;2023-02-28T05:49:23;2.70;99.90
20479;DHT22;10398;52.490;13.434;2023-02-28T05:51:48;2.70;99.90
20479;DHT22;10398;52.490;13.434;2023-02-28T05:54:14;2.60;99.90
20479;DHT22;10398;52.490;13.434;2023-02-28T05:56:40;2.60;99.90
20479;DHT22;10398;52.490;13.434;2023-02-28T05:59:13;2.70;99.90
20479;DHT22;10398;52.490;13.434;2023-02-28T06:01:43;2.60;99.90
20479;DHT22;10398;52.490;13.434;2023-02-28T06:04:14;2.60;99.90
20479;DHT22;10398;52.490;13.434;2023-02-28T06:06:45;2.60;99.90
20479;DHT22;10398;52.490;13.434;2023-02-28T06:09:11;2.60;99.90
20479;DHT22;10398;52.490;13.434;2023-02-28T06:11:37;2.60;99.90
20479;DHT22;10398;52.490;13.434;2023-02-28T06:14:03;2.50;99.90
20479;DHT22;10398;52.490;13.434;2023-02-28T06:16:31;2.60;99.90
20479;DHT22;10398;52.490;13.434;2023-02-28T06:18:58;2.60;99.90
20479;DHT22;10398;52.490;13.434;2023-02-28T06:21:25;2.60;99.90
20479;DHT22;10398;52.490;13.434;2023-02-28T06:23:50;2.60;99.90
20479;DHT22;10398;52.490;13.434;2023-02-28T06:26:16;2.60;99.90
20479;DHT22;10398;52.490;13.434;2023-02-28T06:28:42;2.60;99.90
20479;DHT22;10398;52.490;13.434;2023-02-28T06:31:13;2.70;99.90
20479;DHT22;10398;52.490;13.434;2023-02-28T06:33:40;2.70;99.90
20479;DHT22;10398;52.490;13.434;2023-02-28T06:36:07;2.70;99.90
20479;DHT22;10398;52.490;13.434;2023-02-28T06:38:33;2.70;99.90
20479;DHT22;10398;52.490;13.434;2023-02-28T06:41:00;2.80;99.90
20479;DHT22;10398;52.490;13.434;2023-02-28T06:43:29;2.90;99.90
20479;DHT22;10398;52.490;13.434;2023-02-28T06:45:55;2.90;99.90
20479;DHT22;10398;52.490;13.434;2023-02-28T06:48:22;2.90;99.90
20479;DHT22;10398;52.490;13.434;2023-02-28T06:50:48;2.90;99.90
20479;DHT22;10398;52.490;13.434;2023-02-28T06:53:13;3.00;99.90
20479;DHT22;10398;52.490;13.434;2023-02-28T06:55:42;3.00;99.90
20479;DHT22;10398;52.490;13.434;2023-02-28T06:58:09;3.20;99.90
20479;DHT22;10398;52.490;13.434;2023-02-28T07:00:44;3.20;99.90
20479;DHT22;10398;52.490;13.434;2023-02-28T07:03:14;3.30;99.90
20479;DHT22;10398;52.490;13.434;2023-02-28T07:05:40;3.20;99.90
20479;DHT22;10398;52.490;13.434;2023-02-28T07:08:06;3.10;99.90
20479;DHT22;10398;52.490;13.434;2023-02-28T07:10:33;3.10;99.90
20479;DHT22;10398;52.490;13.434;2023-02-28T07:12:59;3.10;99.90
20479;DHT22;10398;52.490;13.434;2023-02-28T07:15:25;3.20;99.90
20479;DHT22;10398;52.490;13.434;2023-02-28T07:17:50;3.30;99.90
20479;DHT22;10398;52.490;13.434;2023-02-28T07:20:16;3.30;99.90
20479;DHT22;10398;52.490;13.434;2023-02-28T07:22:42;3.40;99.90
20479;DHT22;10398;52.490;13.434;2023-02-28T07:25:08;3.40;99.90
20479;DHT22;10398;52.490;13.434;2023-02-28T07:27:34;3.50;99.90
20479;DHT22;10398;52.490;13.434;2023-02-28T07:29:59;3.50;99.90
20479;DHT22;10398;52.490;13.434;2023-02-28T07:32:27;3.60;99.90
20479;DHT22;10398;52.490;13.434;2023-02-28T07:34:53;3.70;99.90
20479;DHT22;10398;52.490;13.434;2023-02-28T07:37:19;3.80;99.90
20479;DHT22;10398;52.490;13.434;2023-02-28T07:39:45;3.90;99.90
20479;DHT22;10398;52.490;13.434;2023-02-28T07:42:11;4.00;99.90
20479;DHT22;10398;52.490;13.434;2023-02-28T07:44:38;4.10;99.90
20479;DHT22;10398;52.490;13.434;2023-02-28T07:47:09;4.20;99.90
20479;DHT22;10398;52.490;13.434;2023-02-28T07:49:38;4.30;99.90
20479;DHT22;10398;52.490;13.434;2023-02-28T07:52:05;4.30;99.90
20479;DHT22;10398;52.490;13.434;2023-02-28T07:54:32;4.40;99.90
20479;DHT22;10398;52.490;13.434;2023-02-28T07:56:58;4.50;99.90
20479;DHT22;10398;52.490;13.434;2023-02-28T07:59:24;4.60;99.90
20479;DHT22;10398;52.490;13.434;2023-02-28T08:01:50;4.70;99.90
20479;DHT22;10398;52.490;13.434;2023-02-28T08:04:19;4.70;99.90
20479;DHT22;10398;52.490;13.434;2023-02-28T08:06:44;4.80;99.90
20479;DHT22;10398;52.490;13.434;2023-02-28T08:09:10;4.90;99.90
20479;DHT22;10398;52.490;13.434;2023-02-28T08:11:36;4.90;99.90
20479;DHT22;10398;52.490;13.434;2023-02-28T08:14:02;5.00;99.90
20479;DHT22;10398;52.490;13.434;2023-02-28T08:16:28;5.10;99.90
20479;DHT22;10398;52.490;13.434;2023-02-28T08:18:54;5.30;99.90
20479;DHT22;10398;52.490;13.434;2023-02-28T08:21:20;5.40;99.90
20479;DHT22;10398;52.490;13.434;2023-02-28T08:23:50;5.50;99.90
20479;DHT22;10398;52.490;13.434;2023-02-28T08:26:17;5.70;99.90
20479;DHT22;10398;52.490;13.434;2023-02-28T08:28:43;5.80;99.90
20479;DHT22;10398;52.490;13.434;2023-02-28T08:31:11;6.00;99.90
20479;DHT22;10398;52.490;13.434;2023-02-28T08:33:39;6.20;99.90
20479;DHT22;10398;52.490;13.434;2023-02-28T08:36:07;6.40;99.90
20479;DHT22;10398;52.490;13.434;2023-02-28T08:38:33;6.50;99.90
20479;DHT22;10398;52.490;13.434;2023-02-28T08:41:04;6.70;99.90
20479;DHT22;10398;52.490;13.434;2023-02-28T08:43:35;6.80;99.90
20479;DHT22;10398;52.490;13.434;2023-02-28T08:46:02;7.00;99.00
20479;DHT22;10398;52.490;13.434;2023-02-28T08:48:30;7.10;99.60
20479;DHT22;10398;52.490;13.434;2023-02-28T08:51:02;7.00;96.90
20479;DHT22;10398;52.490;13.434;2023-02-28T08:53:28;7.00;96.30
20479;DHT22;10398;52.490;13.434;2023-02-28T08:56:08;7.20;96.80
20479;DHT22;10398;52.490;13.434;2023-02-28T08:58:34;7.30;95.10
20479;DHT22;10398;52.490;13.434;2023-02-28T09:03:30;7.40;92.20
20479;DHT22;10398;52.490;13.434;2023-02-28T09:05:57;7.30;91.70
20479;DHT22;10398;52.490;13.434;2023-02-28T09:08:24;7.40;92.40
20479;DHT22;10398;52.490;13.434;2023-02-28T09:10:51;7.60;92.20
20479;DHT22;10398;52.490;13.434;2023-02-28T09:13:18;7.70;92.20
20479;DHT22;10398;52.490;13.434;2023-02-28T09:15:44;7.80;92.10
20479;DHT22;10398;52.490;13.434;2023-02-28T09:18:09;7.90;91.20
20479;DHT22;10398;52.490;13.434;2023-02-28T09:20:38;7.70;90.90
20479;DHT22;10398;52.490;13.434;2023-02-28T09:23:04;7.70;91.00
20479;DHT22;10398;52.490;13.434;2023-02-28T09:25:29;7.90;90.80
20479;DHT22;10398;52.490;13.434;2023-02-28T09:27:55;8.10;91.70
20479;DHT22;10398;52.490;13.434;2023-02-28T09:30:20;8.40;93.20
20479;DHT22;10398;52.490;13.434;2023-02-28T09:32:46;8.80;97.90
20479;DHT22;10398;52.490;13.434;2023-02-28T09:35:18;9.10;94.60
20479;DHT22;10398;52.490;13.434;2023-02-28T09:37:44;9.40;93.50
20479;DHT22;10398;52.490;13.434;2023-02-28T09:40:10;9.50;91.80
20479;DHT22;10398;52.490;13.434;2023-02-28T09:42:37;9.60;88.40
20479;DHT22;10398;52.490;13.434;2023-02-28T09:45:33;9.80;87.30
20479;DHT22;10398;52.490;13.434;2023-02-28T09:48:10;9.90;87.30
20479;DHT22;10398;52.490;13.434;2023-02-28T09:50:44;10.00;84.90
20479;DHT22;10398;52.490;13.434;2023-02-28T09:53:33;10.00;84.10
20479;DHT22;10398;52.490;13.434;2023-02-28T09:56:07;9.90;82.90
20479;DHT22;10398;52.490;13.434;2023-02-28T09:58:39;10.10;83.70
20479;DHT22;10398;52.490;13.434;2023-02-28T10:06:48;10.10;79.10
20479;DHT22;10398;52.490;13.434;2023-02-28T10:09:26;10.30;82.10
20479;DHT22;10398;52.490;13.434;2023-02-28T10:11:57;10.30;79.30
20479;DHT22;10398;52.490;13.434;2023-02-28T10:14:28;10.20;78.40
20479;DHT22;10398;52.490;13.434;2023-02-28T10:19:39;10.70;78.60
20479;DHT22;10398;52.490;13.434;2023-02-28T10:22:14;11.00;79.10
20479;DHT22;10398;52.490;13.434;2023-02-28T10:24:47;11.40;76.30
20479;DHT22;10398;52.490;13.434;2023-02-28T10:29:46;11.60;73.90
20479;DHT22;10398;52.490;13.434;2023-02-28T10:32:17;11.50;75.30
20479;DHT22;10398;52.490;13.434;2023-02-28T10:34:43;11.70;75.10
20479;DHT22;10398;52.490;13.434;2023-02-28T10:37:11;12.00;75.80
20479;DHT22;10398;52.490;13.434;2023-02-28T10:39:41;11.90;72.30
20479;DHT22;10398;52.490;13.434;2023-02-28T10:42:20;12.30;72.50
20479;DHT22;10398;52.490;13.434;2023-02-28T10:44:47;12.40;69.70
20479;DHT22;10398;52.490;13.434;2023-02-28T10:47:17;12.60;84.70
20479;DHT22;10398;52.490;13.434;2023-02-28T10:49:49;13.10;85.70
20479;DHT22;10398;52.490;13.434;2023-02-28T10:52:36;13.50;77.20
20479;DHT22;10398;52.490;13.434;2023-02-28T10:55:35;13.80;69.00
20479;DHT22;10398;52.490;13.434;2023-02-28T10:58:00;13.80;68.00
20479;DHT22;10398;52.490;13.434;2023-02-28T11:00:32;13.90;66.30
20479;DHT22;10398;52.490;13.434;2023-02-28T11:02:58;14.00;65.10
20479;DHT22;10398;52.490;13.434;2023-02-28T11:07:54;14.20;64.60
20479;DHT22;10398;52.490;13.434;2023-02-28T11:10:23;13.90;63.00
20479;DHT22;10398;52.490;13.434;2023-02-28T11:12:54;13.30;63.00
20479;DHT22;10398;52.490;13.434;2023-02-28T11:15:22;13.00;62.80
20479;DHT22;10398;52.490;13.434;2023-02-28T11:20:37;13.20;65.60
20479;DHT22;10398;52.490;13.434;2023-02-28T11:23:04;13.20;64.50
20479;DHT22;10398;52.490;13.434;2023-02-28T11:25:33;13.30;62.00
20479;DHT22;10398;52.490;13.434;2023-02-28T11:28:04;13.20;61.80
20479;DHT22;10398;52.490;13.434;2023-02-28T11:30:36;13.20;61.40
20479;DHT22;10398;52.490;13.434;2023-02-28T11:33:27;13.10;62.30
20479;DHT22;10398;52.490;13.434;2023-02-28T11:35:57;12.90;61.90
20479;DHT22;10398;52.490;13.434;2023-02-28T11:38:25;13.00;63.20
20479;DHT22;10398;52.490;13.434;2023-02-28T11:40:59;13.00;63.40
20479;DHT22;10398;52.490;13.434;2023-02-28T11:46:16;12.90;62.80
20479;DHT22;10398;52.490;13.434;2023-02-28T11:49:04;12.80;62.40
20479;DHT22;10398;52.490;13.434;2023-02-28T11:51:35;12.80;63.50
20479;DHT22;10398;52.490;13.434;2023-02-28T11:57:21;13.40;63.10
20479;DHT22;10398;52.490;13.434;2023-02-28T12:27:16;13.30;60.90
20479;DHT22;10398;52.490;13.434;2023-02-28T12:33:11;13.90;60.20
20479;DHT22;10398;52.490;13.434;2023-02-28T12:35:45;13.70;59.80
20479;DHT22;10398;52.490;13.434;2023-02-28T12:38:16;13.90;60.30
20479;DHT22;10398;52.490;13.434;2023-02-28T12:40:52;14.00;59.10
20479;DHT22;10398;52.490;13.434;2023-02-28T12:43:21;14.10;59.30
20479;DHT22;10398;52.490;13.434;2023-02-28T12:46:00;14.30;59.60
20479;DHT22;10398;52.490;13.434;2023-02-28T12:48:40;14.60;59.40
20479;DHT22;10398;52.490;13.434;2023-02-28T12:51:08;14.80;58.90
20479;DHT22;10398;52.490;13.434;2023-02-28T12:56:55;14.90;58.60
20479;DHT22;10398;52.490;13.434;2023-02-28T13:00:16;14.80;57.90
20479;DHT22;10398;52.490;13.434;2023-02-28T13:08:03;14.70;56.50
20479;DHT22;10398;52.490;13.434;2023-02-28T13:10:50;14.70;56.30
20479;DHT22;10398;52.490;13.434;2023-02-28T13:13:24;14.50;56.20
20479;DHT22;10398;52.490;13.434;2023-02-28T13:16:03;14.30;56.60
20479;DHT22;10398;52.490;13.434;2023-02-28T13:20:58;14.30;56.80
20479;DHT22;10398;52.490;13.434;2023-02-28T13:34:32;14.00;55.30
20479;DHT22;10398;52.490;13.434;2023-02-28T13:50:22;13.60;56.80
20479;DHT22;10398;52.490;13.434;2023-02-28T13:53:01;13.40;56.50
20479;DHT22;10398;52.490;13.434;2023-02-28T14:06:38;12.70;58.20
20479;DHT22;10398;52.490;13.434;2023-02-28T14:11:43;12.70;58.10
20479;DHT22;10398;52.490;13.434;2023-02-28T14:17:06;12.80;61.00
20479;DHT22;10398;52.490;13.434;2023-02-28T14:19:37;12.50;62.30
20479;DHT22;10398;52.490;13.434;2023-02-28T14:33:22;12.70;63.70
20479;DHT22;10398;52.490;13.434;2023-02-28T14:36:03;12.80;62.80
20479;DHT22;10398;52.490;13.434;2023-02-28T14:38:32;12.90;63.90
20479;DHT22;10398;52.490;13.434;2023-02-28T14:41:02;12.50;59.40
20479;DHT22;10398;52.490;13.434;2023-02-28T14:43:28;12.50;60.10
20479;DHT22;10398;52.490;13.434;2023-02-28T14:46:00;12.40;59.40
20479;DHT22;10398;52.490;13.434;2023-02-28T14:48:27;12.20;59.40
20479;DHT22;10398;52.490;13.434;2023-02-28T14:50:58;12.20;59.90
20479;DHT22;10398;52.490;13.434;2023-02-28T14:53:30;12.00;60.40
20479;DHT22;10398;52.490;13.434;2023-02-28T14:55:56;11.80;59.80
20479;DHT22;10398;52.490;13.434;2023-02-28T14:58:26;11.60;59.90
20479;DHT22;10398;52.490;13.434;2023-02-28T15:00:54;11.50;60.00
20479;DHT22;10398;52.490;13.434;2023-02-28T15:03:33;11.40;60.00
20479;DHT22;10398;52.490;13.434;2023-02-28T15:06:05;11.10;60.80
20479;DHT22;10398;52.490;13.434;2023-02-28T15:08:31;10.80;61.70
20479;DHT22;10398;52.490;13.434;2023-02-28T15:11:16;10.40;62.80
20479;DHT22;10398;52.490;13.434;2023-02-28T15:13:46;10.40;63.40
20479;DHT22;10398;52.490;13.434;2023-02-28T15:16:40;10.40;63.40
20479;DHT22;10398;52.490;13.434;2023-02-28T15:19:30;10.30;62.90
20479;DHT22;10398;52.490;13.434;2023-02-28T15:22:02;10.00;63.10
20479;DHT22;10398;52.490;13.434;2023-02-28T15:24:38;10.00;63.90
20479;DHT22;10398;52.490;13.434;2023-02-28T15:27:22;10.20;67.10
20479;DHT22;10398;52.490;13.434;2023-02-28T15:29:58;10.00;64.40
20479;DHT22;10398;52.490;13.434;2023-02-28T15:32:38;10.00;63.90
20479;DHT22;10398;52.490;13.434;2023-02-28T15:35:37;9.90;64.20
20479;DHT22;10398;52.490;13.434;2023-02-28T15:38:22;9.60;65.00
20479;DHT22;10398;52.490;13.434;2023-02-28T15:40:57;9.60;64.80
20479;DHT22;10398;52.490;13.434;2023-02-28T15:43:27;9.50;65.30
20479;DHT22;10398;52.490;13.434;2023-02-28T15:46:01;9.30;66.00
20479;DHT22;10398;52.490;13.434;2023-02-28T15:48:36;9.30;65.90
20479;DHT22;10398;52.490;13.434;2023-02-28T15:53:56;9.20;66.30
20479;DHT22;10398;52.490;13.434;2023-02-28T15:56:31;9.10;66.40
20479;DHT22;10398;52.490;13.434;2023-02-28T15:58:59;9.00;67.10
20479;DHT22;10398;52.490;13.434;2023-02-28T16:01:34;9.00;67.20
20479;DHT22;10398;52.490;13.434;2023-02-28T16:04:17;9.00;66.70
20479;DHT22;10398;52.490;13.434;2023-02-28T16:06:44;8.80;67.00
20479;DHT22;10398;52.490;13.434;2023-02-28T16:09:13;8.80;67.60
20479;DHT22;10398;52.490;13.434;2023-02-28T16:11:49;8.80;67.90
20479;DHT22;10398;52.490;13.434;2023-02-28T16:14:19;8.80;68.10
20479;DHT22;10398;52.490;13.434;2023-02-28T16:16:49;8.80;68.80
20479;DHT22;10398;52.490;13.434;2023-02-28T16:19:15;8.70;68.70
20479;DHT22;10398;52.490;13.434;2023-02-28T16:21:40;8.60;69.00
20479;DHT22;10398;52.490;13.434;2023-02-28T16:24:07;8.40;69.10
20479;DHT22;10398;52.490;13.434;2023-02-28T16:26:32;8.30;69.20
20479;DHT22;10398;52.490;13.434;2023-02-28T16:29:02;8.20;70.00
20479;DHT22;10398;52.490;13.434;2023-02-28T16:31:29;8.10;70.70
20479;DHT22;10398;52.490;13.434;2023-02-28T16:33:55;8.20;70.90
20479;DHT22;10398;52.490;13.434;2023-02-28T16:36:22;8.20;70.70
20479;DHT22;10398;52.490;13.434;2023-02-28T16:38:50;8.20;70.70
20479;DHT22;10398;52.490;13.434;2023-02-28T16:41:19;8.20;71.00
20479;DHT22;10398;52.490;13.434;2023-02-28T16:43:46;8.20;71.20
20479;DHT22;10398;52.490;13.434;2023-02-28T16:46:13;8.20;71.30
20479;DHT22;10398;52.490;13.434;2023-02-28T16:48:39;8.10;71.40
20479;DHT22;10398;52.490;13.434;2023-02-28T16:51:10;8.00;71.50
20479;DHT22;10398;52.490;13.434;2023-02-28T16:53:36;8.10;71.70
20479;DHT22;10398;52.490;13.434;2023-02-28T16:56:02;8.00;71.90
20479;DHT22;10398;52.490;13.434;2023-02-28T16:58:29;7.90;71.90
20479;DHT22;10398;52.490;13.434;2023-02-28T17:00:55;7.90;72.20
20479;DHT22;10398;52.490;13.434;2023-02-28T17:03:25;7.80;72.50
20479;DHT22;10398;52.490;13.434;2023-02-28T17:05:50;7.70;72.60
20479;DHT22;10398;52.490;13.434;2023-02-28T17:08:17;7.70;72.80
20479;DHT22;10398;52.490;13.434;2023-02-28T17:10:43;7.60;73.50
20479;DHT22;10398;52.490;13.434;2023-02-28T17:13:09;7.50;73.60
20479;DHT22;10398;52.490;13.434;2023-02-28T17:15:35;7.30;74.10
20479;DHT22;10398;52.490;13.434;2023-02-28T17:18:01;7.20;74.50
20479;DHT22;10398;52.490;13.434;2023-02-28T17:20:27;7.20;74.80
20479;DHT22;10398;52.490;13.434;2023-02-28T17:22:53;7.10;74.90
20479;DHT22;10398;52.490;13.434;2023-02-28T17:25:19;7.10;74.90
20479;DHT22;10398;52.490;13.434;2023-02-28T17:27:45;7.10;75.40
20479;DHT22;10398;52.490;13.434;2023-02-28T17:30:26;7.00;75.70
20479;DHT22;10398;52.490;13.434;2023-02-28T17:32:56;6.90;75.70
20479;DHT22;10398;52.490;13.434;2023-02-28T17:35:22;7.00;75.80
20479;DHT22;10398;52.490;13.434;2023-02-28T17:37:50;6.90;76.20
20479;DHT22;10398;52.490;13.434;2023-02-28T17:40:22;6.90;76.30
20479;DHT22;10398;52.490;13.434;2023-02-28T17:42:48;7.00;76.40
20479;DHT22;10398;52.490;13.434;2023-02-28T17:45:14;6.90;76.40
20479;DHT22;10398;52.490;13.434;2023-02-28T17:47:42;6.90;76.50
20479;DHT22;10398;52.490;13.434;2023-02-28T17:50:20;6.80;76.80
20479;DHT22;10398;52.490;13.434;2023-02-28T17:52:46;6.80;77.10
20479;DHT22;10398;52.490;13.434;2023-02-28T17:55:12;6.80;77.30
20479;DHT22;10398;52.490;13.434;2023-02-28T17:57:38;6.70;77.50
20479;DHT22;10398;52.490;13.434;2023-02-28T18:00:12;6.70;77.70
20479;DHT22;10398;52.490;13.434;2023-02-28T18:02:38;6.70;78.20
20479;DHT22;10398;52.490;13.434;2023-02-28T18:05:05;6.70;78.40
20479;DHT22;10398;52.490;13.434;2023-02-28T18:07:31;6.60;78.60
20479;DHT22;10398;52.490;13.434;2023-02-28T18:09:57;6.50;79.20
20479;DHT22;10398;52.490;13.434;2023-02-28T18:12:22;6.60;79.10
20479;DHT22;10398;52.490;13.434;2023-02-28T18:14:48;6.50;79.10
20479;DHT22;10398;52.490;13.434;2023-02-28T18:17:14;6.40;79.30
20479;DHT22;10398;52.490;13.434;2023-02-28T18:19:39;6.40;79.60